createdAt,value
2022-08-28T00:02:04.647Z,44.03
2022-08-28T00:04:32.152Z,48.47
2022-08-28T00:06:59.732Z,46.70
2022-08-28T00:09:27.190Z,41.20
2022-08-28T00:11:55.331Z,48.15
2022-08-28T00:14:24.425Z,38.97
2022-08-28T00:16:52.567Z,41.85
2022-08-28T00:19:20.616Z,42.95
2022-08-28T00:21:48.208Z,43.83
2022-08-28T00:24:15.719Z,40.67
2022-08-28T00:27:02.217Z,41.25
2022-08-28T00:29:30.649Z,43.35
2022-08-28T00:31:58.480Z,47.03
2022-08-28T00:34:33.483Z,43.05
2022-08-28T00:37:01.916Z,40.10
2022-08-28T00:39:29.366Z,40.70
2022-08-28T00:41:58.006Z,46.20
2022-08-28T00:44:28.414Z,41.35
2022-08-28T00:46:58.010Z,40.47
2022-08-28T00:49:32.955Z,40.92
2022-08-28T00:52:16.259Z,44.15
2022-08-28T00:54:58.899Z,45.13
2022-08-28T00:57:37.946Z,44.88
2022-08-28T01:00:16.756Z,46.53
2022-08-28T01:02:44.357Z,43.42
2022-08-28T01:05:13.869Z,47.03
2022-08-28T01:07:42.241Z,43.67
2022-08-28T01:10:14.483Z,43.22
2022-08-28T01:12:42.776Z,42.05
2022-08-28T01:15:14.077Z,38.10
2022-08-28T01:17:46.759Z,40.97
2022-08-28T01:20:18.366Z,44.60
2022-08-28T01:22:59.459Z,42.30
2022-08-28T01:25:30.937Z,43.47
2022-08-28T01:27:58.798Z,39.05
2022-08-28T01:30:26.718Z,38.95
2022-08-28T01:32:56.129Z,37.90
2022-08-28T01:35:32.022Z,39.88
2022-08-28T01:38:00.300Z,41.88
2022-08-28T01:40:36.757Z,38.60
2022-08-28T01:43:19.515Z,41.40
2022-08-28T01:45:53.193Z,43.92
2022-08-28T01:48:23.307Z,44.92
2022-08-28T01:50:51.050Z,40.15
2022-08-28T01:53:24.870Z,39.58
2022-08-28T01:55:54.993Z,44.30
2022-08-28T01:58:23.512Z,40.20
2022-08-28T02:00:53.931Z,46.45
2022-08-28T02:03:23.867Z,40.92
2022-08-28T02:05:52.504Z,38.67
2022-08-28T02:08:20.864Z,41.97
2022-08-28T02:10:49.448Z,37.80
2022-08-28T02:13:17.111Z,38.53
2022-08-28T02:15:46.174Z,44.72
2022-08-28T02:18:14.751Z,41.15
2022-08-28T02:20:43.216Z,41.00
2022-08-28T02:23:11.260Z,40.28
2022-08-28T02:25:39.704Z,41.10
2022-08-28T02:28:07.383Z,40.90
2022-08-28T02:30:36.010Z,43.03
2022-08-28T02:33:04.247Z,45.30
2022-08-28T02:35:32.026Z,44.63
2022-08-28T02:38:00.463Z,44.15
2022-08-28T02:40:28.450Z,42.58
2022-08-28T02:42:56.046Z,41.75
2022-08-28T02:45:23.611Z,44.65
2022-08-28T02:47:53.415Z,45.45
2022-08-28T02:50:22.125Z,42.28
2022-08-28T02:52:49.679Z,42.88
2022-08-28T02:55:19.169Z,46.70
2022-08-28T02:57:48.764Z,43.85
2022-08-28T03:00:21.568Z,43.92
2022-08-28T03:02:50.348Z,43.00
2022-08-28T03:05:21.323Z,40.30
2022-08-28T03:07:50.666Z,43.33
2022-08-28T03:10:18.604Z,42.58
2022-08-28T03:12:46.449Z,40.05
2022-08-28T03:15:14.402Z,39.15
2022-08-28T03:17:41.989Z,33.38
2022-08-28T03:20:10.892Z,39.63
2022-08-28T03:22:57.353Z,37.88
2022-08-28T03:25:25.918Z,37.42
2022-08-28T03:27:53.944Z,34.58
2022-08-28T03:30:22.274Z,35.90
2022-08-28T03:32:50.187Z,38.47
2022-08-28T03:35:17.803Z,34.67
2022-08-28T03:37:45.190Z,33.55
2022-08-28T03:40:14.046Z,31.42
2022-08-28T03:42:41.531Z,32.88
2022-08-28T03:45:11.068Z,30.58
2022-08-28T03:47:40.670Z,29.70
2022-08-28T03:50:11.733Z,25.25
2022-08-28T03:52:41.422Z,27.73
2022-08-28T03:55:11.033Z,27.27
2022-08-28T03:57:39.420Z,25.08
2022-08-28T04:00:10.374Z,24.95
2022-08-28T04:02:42.411Z,23.45
2022-08-28T04:05:11.345Z,24.48
2022-08-28T04:07:40.391Z,24.17
2022-08-28T04:10:08.531Z,23.95
2022-08-28T04:12:37.217Z,23.60
2022-08-28T04:15:06.998Z,24.30
2022-08-28T04:17:35.334Z,24.50
2022-08-28T04:20:02.968Z,23.83
2022-08-28T04:22:30.928Z,24.38
2022-08-28T04:24:58.416Z,26.00
2022-08-28T04:27:25.796Z,23.80
2022-08-28T04:29:53.360Z,26.88
2022-08-28T04:32:22.163Z,25.27
2022-08-28T04:34:50.369Z,24.17
2022-08-28T04:37:18.710Z,23.63
2022-08-28T04:39:46.379Z,25.45
2022-08-28T04:42:14.720Z,23.80
2022-08-28T04:44:42.599Z,25.23
2022-08-28T04:47:10.463Z,24.50
2022-08-28T04:49:38.026Z,25.20
2022-08-28T04:52:05.668Z,26.17
2022-08-28T04:54:34.809Z,25.00
2022-08-28T04:57:03.129Z,24.42
2022-08-28T04:59:34.603Z,25.50
2022-08-28T05:02:02.658Z,26.92
2022-08-28T05:04:30.219Z,26.80
2022-08-28T05:06:57.727Z,25.67
2022-08-28T05:09:25.364Z,23.85
2022-08-28T05:11:53.693Z,25.40
2022-08-28T05:14:22.092Z,26.08
2022-08-28T05:16:53.260Z,23.20
2022-08-28T05:19:21.603Z,23.63
2022-08-28T05:21:49.289Z,22.70
2022-08-28T05:24:17.115Z,24.38
2022-08-28T05:26:48.172Z,21.42
2022-08-28T05:29:17.085Z,22.48
2022-08-28T05:31:44.648Z,20.63
2022-08-28T05:34:14.288Z,24.60
2022-08-28T05:36:42.357Z,23.23
2022-08-28T05:39:11.953Z,21.55
2022-08-28T05:41:42.546Z,19.73
2022-08-28T05:44:13.897Z,17.55
2022-08-28T05:46:43.952Z,17.40
2022-08-28T05:49:12.658Z,21.02
2022-08-28T05:51:42.239Z,17.85
2022-08-28T05:54:10.686Z,18.70
2022-08-28T05:56:40.731Z,20.45
2022-08-28T05:59:09.818Z,15.30
2022-08-28T06:01:41.705Z,17.90
2022-08-28T06:04:12.733Z,15.38
2022-08-28T06:06:41.594Z,14.85
2022-08-28T06:09:29.756Z,16.05
2022-08-28T06:12:01.908Z,15.88
2022-08-28T06:14:30.724Z,18.10
2022-08-28T06:16:59.204Z,16.30
2022-08-28T06:19:29.386Z,17.83
2022-08-28T06:21:59.984Z,15.45
2022-08-28T06:24:29.196Z,14.48
2022-08-28T06:26:58.185Z,14.85
2022-08-28T06:29:28.060Z,15.63
2022-08-28T06:31:58.589Z,15.38
2022-08-28T06:34:27.054Z,13.85
2022-08-28T06:36:54.903Z,15.77
2022-08-28T06:39:23.141Z,14.43
2022-08-28T06:41:50.891Z,14.57
2022-08-28T06:44:20.748Z,15.95
2022-08-28T06:46:51.122Z,13.02
2022-08-28T06:49:18.743Z,15.25
2022-08-28T06:51:46.470Z,13.85
2022-08-28T06:54:19.789Z,13.80
2022-08-28T06:56:50.792Z,15.05
2022-08-28T06:59:18.382Z,12.40
2022-08-28T07:01:46.000Z,12.30
2022-08-28T07:04:16.567Z,9.57
2022-08-28T07:06:54.814Z,12.35
2022-08-28T07:09:23.953Z,8.30
2022-08-28T07:11:51.641Z,12.77
2022-08-28T07:14:19.248Z,8.68
2022-08-28T07:16:46.796Z,7.78
2022-08-28T07:19:16.698Z,13.00
2022-08-28T07:21:45.750Z,8.68
2022-08-28T07:24:14.980Z,10.13
2022-08-28T07:26:43.959Z,7.72
2022-08-28T07:29:12.631Z,7.07
2022-08-28T07:31:44.232Z,10.07
2022-08-28T07:34:13.896Z,8.55
2022-08-28T07:36:42.471Z,7.25
2022-08-28T07:39:12.425Z,7.45
2022-08-28T07:41:43.005Z,4.93
2022-08-28T07:44:31.540Z,6.85
2022-08-28T07:47:04.486Z,5.95
2022-08-28T07:49:34.510Z,8.20
2022-08-28T07:52:02.729Z,5.30
2022-08-28T07:54:30.247Z,6.95
2022-08-28T07:56:57.779Z,3.97
2022-08-28T07:59:25.298Z,4.38
2022-08-28T08:01:53.856Z,4.18
2022-08-28T08:04:23.715Z,5.65
2022-08-28T08:06:57.543Z,5.72
2022-08-28T08:09:26.338Z,3.33
2022-08-28T08:11:55.276Z,3.60
2022-08-28T08:14:23.284Z,3.50
2022-08-28T08:16:51.951Z,3.92
2022-08-28T08:19:20.590Z,5.78
2022-08-28T08:21:53.085Z,3.70
2022-08-28T08:24:26.703Z,3.28
2022-08-28T08:26:59.835Z,4.95
2022-08-28T08:29:31.900Z,3.63
2022-08-28T08:32:06.104Z,7.77
2022-08-28T08:34:37.598Z,6.10
2022-08-28T08:37:06.022Z,5.90
2022-08-28T08:39:35.259Z,4.82
2022-08-28T08:42:07.285Z,4.10
2022-08-28T08:44:39.307Z,6.22
2022-08-28T08:47:17.170Z,3.55
2022-08-28T08:49:57.480Z,4.15
2022-08-28T08:52:49.241Z,3.83
2022-08-28T08:55:24.704Z,3.85
2022-08-28T08:58:17.783Z,5.25
2022-08-28T09:00:58.734Z,3.35
2022-08-28T09:03:48.266Z,3.80
2022-08-28T09:06:43.998Z,5.10
2022-08-28T09:09:32.597Z,3.33
2022-08-28T09:12:04.098Z,3.40
2022-08-28T09:14:53.134Z,5.33
2022-08-28T09:17:24.587Z,4.18
2022-08-28T09:19:52.046Z,3.53
2022-08-28T09:22:19.590Z,4.90
2022-08-28T09:24:47.872Z,4.18
2022-08-28T09:27:28.626Z,5.82
2022-08-28T09:30:07.472Z,5.18
2022-08-28T09:32:44.890Z,2.67
2022-08-28T09:35:25.806Z,3.33
2022-08-28T09:37:53.410Z,4.43
2022-08-28T09:40:23.732Z,4.65
2022-08-28T09:43:28.616Z,4.55
2022-08-28T09:46:22.484Z,3.75
2022-08-28T09:48:53.955Z,4.45
2022-08-28T09:51:21.413Z,4.03
2022-08-28T09:53:52.071Z,5.18
2022-08-28T09:56:32.679Z,4.05
2022-08-28T09:59:02.963Z,4.95
2022-08-28T10:01:51.636Z,5.30
2022-08-28T10:04:24.925Z,5.60
2022-08-28T10:07:13.381Z,3.67
2022-08-28T10:09:52.702Z,3.80
2022-08-28T10:12:50.620Z,4.50
2022-08-28T10:15:26.595Z,3.97
2022-08-28T10:18:31.782Z,3.22
2022-08-28T10:21:14.447Z,5.35
2022-08-28T10:24:07.615Z,3.78
2022-08-28T10:26:43.133Z,6.82
2022-08-28T10:29:27.558Z,3.80
2022-08-28T10:32:14.700Z,4.38
2022-08-28T10:35:03.599Z,3.35
2022-08-28T10:37:52.983Z,3.75
2022-08-28T10:40:35.391Z,4.65
2022-08-28T10:45:40.010Z,4.55
2022-08-28T10:48:24.405Z,4.97
2022-08-28T10:50:57.234Z,4.90
2022-08-28T10:53:52.621Z,3.58
2022-08-28T10:56:30.901Z,3.42
2022-08-28T10:58:59.816Z,4.57
2022-08-28T11:01:38.812Z,4.68
2022-08-28T11:04:14.689Z,3.88
2022-08-28T11:06:50.717Z,3.95
2022-08-28T11:09:31.482Z,5.75
2022-08-28T11:12:09.932Z,4.68
2022-08-28T11:14:48.024Z,6.78
2022-08-28T11:17:22.369Z,4.30
2022-08-28T11:19:57.177Z,5.07
2022-08-28T11:22:30.124Z,4.18
2022-08-28T11:25:13.342Z,5.85
2022-08-28T11:28:01.637Z,6.90
2022-08-28T11:30:33.794Z,7.57
2022-08-28T11:33:04.735Z,3.73
2022-08-28T11:35:46.566Z,5.63
2022-08-28T11:38:42.616Z,3.42
2022-08-28T11:41:15.042Z,4.90
2022-08-28T11:43:51.731Z,6.68
2022-08-28T11:46:31.865Z,3.63
2022-08-28T11:49:01.790Z,4.45
2022-08-28T11:52:07.749Z,5.10
2022-08-28T11:55:22.641Z,4.68
2022-08-28T12:01:01.807Z,3.03
2022-08-28T12:03:38.119Z,3.75
2022-08-28T12:06:07.211Z,3.53
2022-08-28T12:08:51.653Z,4.90
2022-08-28T12:11:40.849Z,8.95
2022-08-28T12:14:09.402Z,12.52
2022-08-28T12:17:01.479Z,5.97
2022-08-28T12:22:13.721Z,5.57
2022-08-28T12:24:50.814Z,7.65
2022-08-28T12:27:18.945Z,8.68
2022-08-28T12:29:50.921Z,4.75
2022-08-28T12:32:21.372Z,4.93
2022-08-28T12:34:58.003Z,3.25
2022-08-28T12:37:52.551Z,3.15
2022-08-28T12:40:53.691Z,3.58
2022-08-28T12:43:46.788Z,2.97
2022-08-28T12:46:38.507Z,6.60
2022-08-28T12:49:27.603Z,4.35
2022-08-28T12:52:18.255Z,3.55
2022-08-28T12:54:47.051Z,4.88
2022-08-28T12:57:18.111Z,3.47
2022-08-28T12:59:51.294Z,4.40
2022-08-28T13:05:20.555Z,3.95
2022-08-28T13:07:51.675Z,3.10
2022-08-28T13:10:30.086Z,3.67
2022-08-28T13:13:05.470Z,5.47
2022-08-28T13:16:01.727Z,3.28
2022-08-28T13:18:51.684Z,6.05
2022-08-28T13:21:34.060Z,3.70
2022-08-28T13:24:22.345Z,4.22
2022-08-28T13:27:00.980Z,4.32
2022-08-28T13:29:28.870Z,5.72
2022-08-28T13:32:05.522Z,4.55
2022-08-28T13:34:36.292Z,5.20
2022-08-28T13:37:14.645Z,4.60
2022-08-28T13:39:47.971Z,3.58
2022-08-28T13:42:18.182Z,4.80
2022-08-28T13:44:53.478Z,3.75
2022-08-28T13:47:21.057Z,4.10
2022-08-28T13:49:48.642Z,7.13
2022-08-28T13:52:16.385Z,4.95
2022-08-28T13:54:45.514Z,7.03
2022-08-28T13:57:14.104Z,6.10
2022-08-28T13:59:42.176Z,4.30
2022-08-28T14:02:32.738Z,7.40
2022-08-28T14:05:01.142Z,7.65
2022-08-28T14:07:30.674Z,5.25
2022-08-28T14:09:58.686Z,5.47
2022-08-28T14:12:31.427Z,7.00
2022-08-28T14:15:01.962Z,5.15
2022-08-28T14:17:31.977Z,7.32
2022-08-28T14:20:00.584Z,5.50
2022-08-28T14:22:28.801Z,7.50
2022-08-28T14:24:56.271Z,5.68
2022-08-28T14:27:23.758Z,4.80
2022-08-28T14:29:51.289Z,4.78
2022-08-28T14:32:18.947Z,4.70
2022-08-28T14:34:47.886Z,6.65
2022-08-28T14:37:15.895Z,5.50
2022-08-28T14:39:43.809Z,6.50
2022-08-28T14:42:13.023Z,6.28
2022-08-28T14:44:40.966Z,6.90
2022-08-28T14:47:09.001Z,9.15
2022-08-28T14:49:36.596Z,8.77
2022-08-28T14:52:04.883Z,9.02
2022-08-28T14:54:32.441Z,11.23
2022-08-28T14:57:00.024Z,8.63
2022-08-28T14:59:29.492Z,8.48
2022-08-28T15:02:00.337Z,10.43
2022-08-28T15:04:34.841Z,7.70
2022-08-28T15:07:06.848Z,5.15
2022-08-28T15:09:39.957Z,7.65
2022-08-28T15:14:36.299Z,10.98
2022-08-28T15:17:04.352Z,8.23
2022-08-28T15:19:31.981Z,9.35
2022-08-28T15:22:00.092Z,8.85
2022-08-28T15:24:31.766Z,10.43
2022-08-28T15:26:59.966Z,7.22
2022-08-28T15:29:30.147Z,8.88
2022-08-28T15:31:58.698Z,9.13
2022-08-28T15:34:28.700Z,8.18
2022-08-28T15:36:57.817Z,8.82
2022-08-28T15:39:46.368Z,10.32
2022-08-28T15:42:14.612Z,9.40
2022-08-28T15:44:42.616Z,12.68
2022-08-28T15:47:10.654Z,8.05
2022-08-28T15:49:48.616Z,9.95
2022-08-28T15:52:19.023Z,12.63
2022-08-28T15:54:47.430Z,11.40
2022-08-28T15:57:17.022Z,10.43
2022-08-28T15:59:49.532Z,10.13
2022-08-28T16:02:24.558Z,11.65
2022-08-28T16:04:53.647Z,11.10
2022-08-28T16:07:22.776Z,9.48
2022-08-28T16:09:50.926Z,11.45
2022-08-28T16:12:18.666Z,10.45
2022-08-28T16:14:46.262Z,8.25
2022-08-28T16:17:13.923Z,8.77
2022-08-28T16:19:42.462Z,10.05
2022-08-28T16:22:12.758Z,8.40
2022-08-28T16:24:40.389Z,9.45
2022-08-28T16:27:13.124Z,8.60
2022-08-28T16:29:43.475Z,12.45
2022-08-28T16:32:11.704Z,12.70
2022-08-28T16:34:40.238Z,11.18
2022-08-28T16:37:08.224Z,8.93
2022-08-28T16:39:37.060Z,11.18
2022-08-28T16:42:04.907Z,12.68
2022-08-28T16:44:32.462Z,11.60
2022-08-28T16:47:00.695Z,8.02
2022-08-28T16:49:28.311Z,12.50
2022-08-28T16:51:55.860Z,12.40
2022-08-28T16:54:23.910Z,11.55
2022-08-28T16:56:51.548Z,10.82
2022-08-28T16:59:23.260Z,14.32
2022-08-28T17:01:53.074Z,13.13
2022-08-28T17:04:22.390Z,12.23
2022-08-28T17:06:50.378Z,17.00
2022-08-28T17:09:21.150Z,16.13
2022-08-28T17:11:52.059Z,16.63
2022-08-28T17:14:21.379Z,11.63
2022-08-28T17:16:49.124Z,16.08
2022-08-28T17:19:16.705Z,14.63
2022-08-28T17:22:02.541Z,18.98
2022-08-28T17:24:31.356Z,16.48
2022-08-28T17:27:03.249Z,13.73
2022-08-28T17:29:36.630Z,15.07
2022-08-28T17:32:05.544Z,12.55
2022-08-28T17:34:33.023Z,15.60
2022-08-28T17:37:00.610Z,19.88
2022-08-28T17:39:28.371Z,13.88
2022-08-28T17:41:55.969Z,14.70
2022-08-28T17:44:23.834Z,14.43
2022-08-28T17:46:53.966Z,12.52
2022-08-28T17:49:22.729Z,13.73
2022-08-28T17:51:51.384Z,11.88
2022-08-28T17:54:21.979Z,19.33
2022-08-28T17:56:52.421Z,13.40
2022-08-28T17:59:20.744Z,12.93
2022-08-28T18:01:48.742Z,11.10
2022-08-28T18:04:23.277Z,12.63
2022-08-28T18:06:54.843Z,10.98
2022-08-28T18:09:23.806Z,14.50
2022-08-28T18:11:52.585Z,15.38
2022-08-28T18:14:20.345Z,15.00
2022-08-28T18:16:47.937Z,12.05
2022-08-28T18:19:16.613Z,14.25
2022-08-28T18:21:44.345Z,11.60
2022-08-28T18:24:13.282Z,15.55
2022-08-28T18:26:42.056Z,13.20
2022-08-28T18:29:09.621Z,14.15
2022-08-28T18:31:37.313Z,13.23
2022-08-28T18:34:05.611Z,12.45
2022-08-28T18:36:33.183Z,12.18
2022-08-28T18:39:00.749Z,12.52
2022-08-28T18:41:35.736Z,12.35
2022-08-28T18:44:13.717Z,12.05
2022-08-28T18:46:41.818Z,13.07
2022-08-28T18:49:09.699Z,12.57
2022-08-28T18:51:37.419Z,11.75
2022-08-28T18:54:04.988Z,12.70
2022-08-28T18:56:34.138Z,14.88
2022-08-28T18:59:04.459Z,11.85
2022-08-28T19:01:32.066Z,11.95
2022-08-28T19:03:59.755Z,14.50
2022-08-28T19:06:27.381Z,12.10
2022-08-28T19:08:54.842Z,13.32
2022-08-28T19:11:22.282Z,14.40
2022-08-28T19:13:49.798Z,13.15
2022-08-28T19:16:20.823Z,13.38
2022-08-28T19:18:48.886Z,14.70
2022-08-28T19:21:20.670Z,14.77
2022-08-28T19:23:55.357Z,11.10
2022-08-28T19:26:27.499Z,11.98
2022-08-28T19:28:55.453Z,16.73
2022-08-28T19:31:23.752Z,17.33
2022-08-28T19:33:51.689Z,18.20
2022-08-28T19:36:19.806Z,13.88
2022-08-28T19:38:47.867Z,14.88
2022-08-28T19:41:15.472Z,12.32
2022-08-28T19:43:44.693Z,16.60
2022-08-28T19:46:19.377Z,15.85
2022-08-28T19:48:53.016Z,12.43
2022-08-28T19:51:24.041Z,14.27
2022-08-28T19:53:57.821Z,18.52
2022-08-28T19:56:31.750Z,15.15
2022-08-28T19:59:01.789Z,15.88
2022-08-28T20:01:33.067Z,17.00
2022-08-28T20:04:00.769Z,14.75
2022-08-28T20:06:31.797Z,15.20
2022-08-28T20:09:00.577Z,19.83
2022-08-28T20:11:30.054Z,12.32
2022-08-28T20:14:04.564Z,15.68
2022-08-28T20:16:36.028Z,15.40
2022-08-28T20:19:04.755Z,14.05
2022-08-28T20:21:37.646Z,14.35
2022-08-28T20:26:37.342Z,12.43
2022-08-28T20:29:07.944Z,16.73
2022-08-28T20:31:37.403Z,12.85
2022-08-28T20:34:05.205Z,16.65
2022-08-28T20:36:32.839Z,12.02
2022-08-28T20:39:01.023Z,16.25
2022-08-28T20:41:28.752Z,14.98
2022-08-28T20:43:56.212Z,11.00
2022-08-28T20:46:24.677Z,16.02
2022-08-28T20:48:52.267Z,13.40
2022-08-28T20:51:42.543Z,11.38
2022-08-28T20:54:10.777Z,12.15
2022-08-28T20:56:38.443Z,13.13
2022-08-28T20:59:06.399Z,14.93
2022-08-28T21:01:34.187Z,13.90
2022-08-28T21:04:02.307Z,12.95
2022-08-28T21:06:30.568Z,14.02
2022-08-28T21:08:58.587Z,15.80
2022-08-28T21:11:27.409Z,12.93
2022-08-28T21:13:55.652Z,12.82
2022-08-28T21:16:23.406Z,11.23
2022-08-28T21:19:14.684Z,13.52
2022-08-28T21:21:38.946Z,17.60
2022-08-28T21:24:09.496Z,12.90
2022-08-28T21:26:37.906Z,12.23
2022-08-28T21:29:07.014Z,14.43
2022-08-28T21:31:35.014Z,12.32
2022-08-28T21:34:02.616Z,11.30
2022-08-28T21:36:30.198Z,14.18
2022-08-28T21:38:58.634Z,12.55
2022-08-28T21:41:26.109Z,11.50
2022-08-28T21:43:53.770Z,11.50
2022-08-28T21:46:21.348Z,10.32
2022-08-28T21:48:50.607Z,12.52
2022-08-28T21:51:19.653Z,12.48
2022-08-28T21:53:47.647Z,12.27
2022-08-28T21:56:20.609Z,13.15
2022-08-28T21:58:48.199Z,14.50
2022-08-28T22:01:17.097Z,11.63
2022-08-28T22:03:45.521Z,13.13
2022-08-28T22:06:15.870Z,12.93
2022-08-28T22:08:43.851Z,11.90
2022-08-28T22:11:12.158Z,13.70
2022-08-28T22:13:39.883Z,11.10
2022-08-28T22:16:08.323Z,13.02
2022-08-28T22:18:36.071Z,13.52
2022-08-28T22:21:22.964Z,12.85
2022-08-28T22:23:51.702Z,11.82
2022-08-28T22:26:22.538Z,16.42
2022-08-28T22:28:50.115Z,13.80
2022-08-28T22:31:17.661Z,11.70
2022-08-28T22:33:45.769Z,12.23
2022-08-28T22:36:13.754Z,16.92
2022-08-28T22:38:41.826Z,10.88
2022-08-28T22:41:17.665Z,15.75
2022-08-28T22:43:48.304Z,11.93
2022-08-28T22:46:19.065Z,10.45
2022-08-28T22:48:46.671Z,12.10
2022-08-28T22:51:17.168Z,13.73
2022-08-28T22:53:45.512Z,11.73
2022-08-28T22:56:14.176Z,14.32
2022-08-28T22:58:41.975Z,12.70
2022-08-28T23:01:13.828Z,11.20
2022-08-28T23:03:42.399Z,9.63
2022-08-28T23:06:10.185Z,11.63
2022-08-28T23:08:37.697Z,10.88
2022-08-28T23:11:05.739Z,11.63
2022-08-28T23:13:33.604Z,12.85
2022-08-28T23:16:02.244Z,13.07
2022-08-28T23:18:41.496Z,14.65
2022-08-28T23:21:14.085Z,16.08
2022-08-28T23:23:42.752Z,13.93
2022-08-28T23:26:15.221Z,12.18
2022-08-28T23:28:44.490Z,10.13
2022-08-28T23:31:12.014Z,11.45
2022-08-28T23:33:39.532Z,12.20
2022-08-28T23:36:07.435Z,13.20
2022-08-28T23:38:43.036Z,11.30
2022-08-28T23:41:11.669Z,10.23
2022-08-28T23:43:41.142Z,10.48
2022-08-28T23:46:10.014Z,12.25
2022-08-28T23:48:41.357Z,10.38
2022-08-28T23:51:10.513Z,10.98
2022-08-28T23:53:39.797Z,10.73
2022-08-28T23:56:07.544Z,11.90
2022-08-28T23:58:35.623Z,11.55
